• Join FlightAware (Why Join?)
  • Login
  • US Flag 
Rudolph Flight #1: Arrived! 
11:52AM EST


 

Airport Tracker/Info


-or-


 

Live Flight TrackerFlight Track Log ✈ BOE2 ✈ 08-Feb-2010 ✈ KMWH - KBFI

Flight Track Log - Related Links

Times and Time Zones

All times are in EST time to prevent confusion due to time zone crossing. See the BOE2 flight status page for this flight to view local times or setup timezone preferences in your user account.

Time Position Orientation Groundspeed Altitude Reporting Facility
EST Latitude Longitude Course Direction KTS MPH feet Rate Location/Type
07:38PM 47.2494 -119.3490 339° North 161 185 3,200  Level Seattle Center
07:39PM 47.3183 -119.3880 344° North 207 238 6,300 2,760 Climbing Seattle Center
07:40PM 47.3872 -119.4180 21° North 238 274 9,300 1,800 Climbing Seattle Center
07:41PM 47.4578 -119.3780 24° Northeast 249 287 10,000 300 Climbing Seattle Center
07:42PM 47.5283 -119.3310 26° Northeast 254 292 10,000 420 Level Seattle Center
07:43PM 47.5947 -119.2840 23° Northeast 265 305 10,900 480 Climbing Seattle Center
07:44PM 47.6631 -119.2410 59° Northeast 270 311 11,000  Climbing Seattle Center
07:45PM 47.7022 -119.1450 94° East 256 295 11,000  Level Seattle Center
07:46PM 47.6975 -119.0340 100° East 239 275 11,000  Level Seattle Center
07:47PM 47.6842 -118.9260 51° Northeast 245 282 11,000  Level Seattle Center
07:48PM 47.7192 -118.8610 10° North 211 243 11,000  Level Seattle Center
07:49PM 47.7689 -118.8480 15° North 163 188 11,000  Level Seattle Center
07:50PM 47.8186 -118.8280 12° North 169 194 11,000  Level Seattle Center
07:51PM 47.8683 -118.8120 12° North 174 200 11,000  Level Seattle Center
07:52PM 47.9203 -118.7960 15° North 179 206 11,000  Level Seattle Center
07:53PM 47.9700 -118.7760 12° North 179 206 11,000  Level Seattle Center
07:54PM 48.0197 -118.7600 13° North 179 206 11,000  Level Seattle Center
07:55PM 48.0675 -118.7430 293° West 179 206 11,000  Level Seattle Center
07:56PM 48.0825 -118.7960 247° West 111 128 11,000  Level Seattle Center
07:57PM 48.0622 -118.8680 251° West 121 139 11,000  Level Seattle Center
07:58PM 48.0461 -118.9360 251° West 155 178 11,000  Level Seattle Center
07:59PM 48.0300 -119.0070 248° West 178 205 11,000  Level Seattle Center
08:00PM 48.0117 -119.0760 250° West 183 211 11,000  Level Seattle Center
08:01PM 47.9933 -119.1510 251° West 183 211 11,000  Level Seattle Center
08:02PM 47.9772 -119.2220 248° West 188 216 11,000  Level Seattle Center
08:03PM 47.9589 -119.2900 249° West 188 216 11,000  Level Seattle Center
08:04PM 47.9403 -119.3620 252° West 188 216 11,000  Level Seattle Center
08:05PM 47.9239 -119.4360 250° West 188 216 11,000  Level Seattle Center
08:06PM 47.9053 -119.5110 267° West 188 216 11,000 600 Level Seattle Center
08:07PM 47.9014 -119.6160 267° West 218 251 12,300 1,980 Climbing Seattle Center
08:08PM 47.8975 -119.7330 267° West 256 295 15,000 1,800 Climbing Seattle Center
08:09PM 47.8933 -119.8540 268° West 284 327 16,000 480 Climbing Seattle Center
08:10PM 47.8911 -119.9740 267° West 295 339 16,000  Level Seattle Center
08:11PM 47.8867 -120.0980 268° West 295 339 16,000  Level Seattle Center
08:12PM 47.8842 -120.2190 268° West 295 339 16,000  Level Seattle Center
08:13PM 47.8817 -120.3390 269° West 295 339 16,000  Level Seattle Center
08:14PM 47.8808 -120.4630 268° West 295 339 16,000  Level Seattle Center
08:15PM 47.8781 -120.5830 265° West 290 334 16,000  Level Seattle Center
08:16PM 47.8708 -120.7070 268° West 290 334 16,000  Level Seattle Center
08:17PM 47.8678 -120.8300 268° West 290 334 16,000  Level Seattle Center
08:18PM 47.8647 -120.9510 266° West 295 339 16,000 -300 Level Seattle Center
08:19PM 47.8592 -121.0740 268° West 295 339 15,400 -1,020 Descending Seattle Center
08:20PM 47.8558 -121.1950 275° West 295 339 14,000 300 Descending Seattle Center
08:21PM 47.8628 -121.3090 276° West 295 339 16,000 -1,320 Climbing Seattle Center
08:22PM 47.8714 -121.4300 275° West 295 339 11,400 -2,520 Descending Seattle Center
08:23PM 47.8781 -121.5420 272° West 295 339 11,000 -360 Descending Seattle Center
08:23PM 47.8794 -121.5910 278° West 278 320 11,000  Level Seattle Center
08:23PM 47.8831 -121.6280 275° West 277 319 11,000  Level Seattle Center
08:24PM 47.8847 -121.6560 253° West 290 334 11,000 -120 Level Seattle Center
08:24PM 47.8689 -121.7330 220° Southwest 282 325 10,900 -420 Descending Seattle Center
08:25PM 47.8519 -121.7540 222° Southwest 262 302 10,600 -1,200 Descending Seattle Center
08:25PM 47.8094 -121.8110 224° Southwest 277 319 9,700 -1,440 Descending Seattle Center
08:26PM 47.7967 -121.8290 222° Southwest 261 300 9,200 -2,460 Descending Seattle Center
08:26PM 47.7519 -121.8890 217° Southwest 265 305 7,200 -2,400 Descending Seattle Center
08:27PM 47.7411 -121.9010 225° Southwest 266 306 6,800 -2,280 Descending Seattle Center
08:27PM 47.6983 -121.9640 210° Southwest 260 299 4,900 -2,340 Descending Seattle Center
08:28PM 47.6878 -121.9730 245° Southwest 266 306 4,500 -1,380 Descending Seattle Center
08:28PM 47.6658 -122.0430 277° West 254 292 3,500 -1,200 Descending Seattle Center
08:29PM 47.6675 -122.0640 291° West 254 292 3,300 -540 Descending Seattle Center
08:29PM 47.6867 -122.1390 287° West 248 285 3,000 -300 Descending Seattle Center
08:30PM 47.6906 -122.1580 286° West 225 259 3,000 -720 Level Seattle Center
08:30PM 47.7056 -122.2360 292° West 238 274 2,300 -840 Descending Seattle Center
08:31PM 47.7133 -122.2640 284° West 232 267 2,200 -120 Descending Seattle Center
08:31PM 47.7244 -122.3320 295° West 232 267 2,200  Level Seattle Center
08:32PM 47.7303 -122.3510 271° West 232 267 2,200  Level Seattle Center
08:32PM 47.7308 -122.4190 231° Southwest 227 261 2,200 60 Level Seattle Center
08:33PM 47.7242 -122.4310 193° South 197 227 2,300 -120 Climbing Seattle Center
08:34PM 47.6781 -122.4470 165° South 198 228 2,100 -300 Descending Seattle Center
08:35PM 47.6267 -122.4260 126° Southeast 195 224 1,800 -420 Descending Seattle Center
08:36PM 47.5986 -122.3690 145° Southeast 188 216 1,400 -660 Descending Seattle Center
08:37PM 47.5581 -122.3270 146° Southeast 170 196 500 6,540 Descending Seattle Center
08:38PM 47.5153 -122.2850 148° Southeast 171 197 16,000 7,320 Climbing Seattle Center
08:39PM 47.4744 -122.2470 145° Southeast 171 197 16,000  Level Seattle Center
08:40PM 47.4336 -122.2050 147° Southeast 171 197 16,000  Level Seattle Center
08:41PM 47.3928 -122.1660 145° Southeast 171 197 16,000  Level Seattle Center
08:42PM 47.3683 -122.1410 145° Southeast 171 197 16,000  Level Seattle Center